createdAt,value
2022-10-05T00:00:02.162Z,14.90
2022-10-05T00:03:54.250Z,19.80
2022-10-05T00:07:26.458Z,17.90
2022-10-05T00:10:54.536Z,14.00
2022-10-05T00:14:28.696Z,20.70
2022-10-05T00:17:57.465Z,18.60
2022-10-05T00:21:28.442Z,21.10
2022-10-05T00:25:14.004Z,14.50
2022-10-05T00:28:45.127Z,14.40
2022-10-05T00:32:16.997Z,15.80
2022-10-05T00:35:45.148Z,13.80
2022-10-05T00:39:13.028Z,18.50
2022-10-05T00:43:02.372Z,17.10
2022-10-05T00:46:37.176Z,14.70
2022-10-05T00:50:40.327Z,16.00
2022-10-05T00:54:30.498Z,15.20
2022-10-05T00:58:14.190Z,12.70
2022-10-05T01:01:52.932Z,14.50
2022-10-05T01:05:35.053Z,14.60
2022-10-05T01:09:16.530Z,16.10
2022-10-05T01:16:30.654Z,16.10
2022-10-05T01:20:16.679Z,20.70
2022-10-05T01:24:10.659Z,22.00
2022-10-05T01:27:52.401Z,17.60
2022-10-05T01:31:28.835Z,19.60
2022-10-05T01:35:08.840Z,16.80
2022-10-05T01:38:44.468Z,15.30
2022-10-05T01:42:24.489Z,15.90
2022-10-05T01:46:00.967Z,14.70
2022-10-05T01:49:38.366Z,14.80
2022-10-05T01:53:14.321Z,15.70
2022-10-05T01:56:48.682Z,15.00
2022-10-05T02:00:18.623Z,13.40
2022-10-05T02:03:51.087Z,15.50
2022-10-05T02:07:23.719Z,12.80
2022-10-05T02:10:55.492Z,15.50
2022-10-05T02:14:28.392Z,16.10
2022-10-05T02:18:01.161Z,17.10
2022-10-05T02:21:28.339Z,15.60
2022-10-05T02:24:59.525Z,16.00
2022-10-05T02:28:35.992Z,18.40
2022-10-05T02:32:11.718Z,14.30
2022-10-05T02:35:38.914Z,18.10
2022-10-05T02:39:15.499Z,14.20
2022-10-05T02:42:57.807Z,18.90
2022-10-05T02:46:36.962Z,13.70
2022-10-05T02:50:13.733Z,15.00
2022-10-05T02:53:53.274Z,16.60
2022-10-05T02:57:30.232Z,14.30
2022-10-05T03:01:06.283Z,20.70
2022-10-05T03:04:42.972Z,16.60
2022-10-05T03:08:18.070Z,15.20
2022-10-05T03:11:53.549Z,14.60
2022-10-05T03:15:38.541Z,15.50
2022-10-05T03:19:21.340Z,17.70
2022-10-05T03:22:55.947Z,12.80
2022-10-05T03:26:36.967Z,12.70
2022-10-05T03:30:07.648Z,15.70
2022-10-05T03:33:44.430Z,13.10
2022-10-05T03:37:19.240Z,14.40
2022-10-05T03:40:56.110Z,16.80
2022-10-05T03:44:33.885Z,13.90
2022-10-05T03:48:07.553Z,18.90
2022-10-05T03:51:41.182Z,18.60
2022-10-05T03:55:18.838Z,17.90
2022-10-05T03:59:07.887Z,17.50
2022-10-05T04:02:41.748Z,17.00
2022-10-05T04:06:15.436Z,19.20
2022-10-05T04:09:58.441Z,13.60
2022-10-05T04:13:31.191Z,14.60
2022-10-05T04:17:04.908Z,17.30
2022-10-05T04:20:37.773Z,18.20
2022-10-05T04:24:17.574Z,13.80
2022-10-05T04:27:49.332Z,16.90
2022-10-05T04:31:30.273Z,17.00
2022-10-05T04:35:10.376Z,14.50
2022-10-05T04:38:59.485Z,15.20
2022-10-05T04:42:36.538Z,13.90
2022-10-05T04:46:19.926Z,18.80
2022-10-05T04:50:02.250Z,14.70
2022-10-05T04:53:36.174Z,13.00
2022-10-05T04:57:11.914Z,16.20
2022-10-05T05:00:50.845Z,23.90
2022-10-05T05:04:38.031Z,18.40
2022-10-05T05:08:19.610Z,17.60
2022-10-05T05:12:02.587Z,15.60
2022-10-05T05:15:42.640Z,12.00
2022-10-05T05:19:24.148Z,15.00
2022-10-05T05:22:55.764Z,21.00
2022-10-05T05:26:33.530Z,13.30
2022-10-05T05:30:10.597Z,13.10
2022-10-05T05:33:51.988Z,19.40
2022-10-05T05:37:31.397Z,15.00
2022-10-05T05:41:08.757Z,12.10
2022-10-05T05:44:42.062Z,13.50
2022-10-05T05:48:20.528Z,18.70
2022-10-05T05:51:53.800Z,13.20
2022-10-05T05:55:29.921Z,14.50
2022-10-05T05:59:05.675Z,17.00
2022-10-05T06:02:39.181Z,11.50
2022-10-05T06:06:11.384Z,13.60
2022-10-05T06:09:43.844Z,14.60
2022-10-05T06:13:25.666Z,16.10
2022-10-05T06:17:00.018Z,11.50
2022-10-05T06:20:34.707Z,10.10
2022-10-05T06:24:07.134Z,14.80
2022-10-05T06:27:40.333Z,14.10
2022-10-05T06:31:21.247Z,11.60
2022-10-05T06:35:07.692Z,14.20
2022-10-05T06:38:55.100Z,14.30
2022-10-05T06:42:36.029Z,12.10
2022-10-05T06:46:18.399Z,17.20
2022-10-05T06:50:05.480Z,18.80
2022-10-05T06:53:52.939Z,15.10
2022-10-05T06:57:42.344Z,17.00
2022-10-05T07:01:16.859Z,17.90
2022-10-05T07:08:30.147Z,13.20
2022-10-05T07:12:08.862Z,13.20
2022-10-05T07:15:49.033Z,13.10
2022-10-05T07:19:36.055Z,14.30
2022-10-05T07:23:22.560Z,12.00
2022-10-05T07:27:00.070Z,12.20
2022-10-05T07:30:30.560Z,12.80
2022-10-05T07:34:19.060Z,13.90
2022-10-05T07:37:57.584Z,14.20
2022-10-05T07:41:40.735Z,18.40
2022-10-05T07:45:17.408Z,12.40
2022-10-05T07:49:03.870Z,14.20
2022-10-05T07:52:39.930Z,15.70
2022-10-05T07:56:16.742Z,12.20
2022-10-05T07:59:51.652Z,10.80
2022-10-05T08:03:31.952Z,12.70
2022-10-05T08:07:06.435Z,13.60
2022-10-05T08:10:42.086Z,9.80
2022-10-05T08:14:21.492Z,9.20
2022-10-05T08:18:01.340Z,11.80
2022-10-05T08:21:40.441Z,12.30
2022-10-05T08:25:21.713Z,16.10
2022-10-05T08:29:02.434Z,11.30
2022-10-05T08:32:37.467Z,11.70
2022-10-05T08:36:12.637Z,9.10
2022-10-05T08:39:42.910Z,9.10
2022-10-05T08:43:35.009Z,10.70
2022-10-05T08:47:17.765Z,12.30
2022-10-05T08:51:03.206Z,13.10
2022-10-05T08:54:51.754Z,10.50
2022-10-05T08:58:36.897Z,10.10
2022-10-05T09:02:29.769Z,16.00
2022-10-05T09:06:23.473Z,11.90
2022-10-05T09:10:37.626Z,10.50
2022-10-05T09:14:33.052Z,8.70
2022-10-05T09:18:44.486Z,10.60
2022-10-05T09:22:23.150Z,8.10
2022-10-05T09:26:01.764Z,10.30
2022-10-05T09:30:05.319Z,5.70
2022-10-05T09:33:59.622Z,11.50
2022-10-05T09:37:37.678Z,10.10
2022-10-05T09:41:36.764Z,10.40
2022-10-05T09:45:43.861Z,8.60
2022-10-05T09:49:28.823Z,9.40
2022-10-05T09:53:25.503Z,11.00
2022-10-05T09:57:18.955Z,12.50
2022-10-05T10:01:09.647Z,7.30
2022-10-05T10:05:02.017Z,15.20
2022-10-05T10:08:44.054Z,8.70
2022-10-05T10:12:26.383Z,8.80
2022-10-05T10:16:20.465Z,8.40
2022-10-05T10:23:55.049Z,10.70
2022-10-05T10:27:37.783Z,9.00
2022-10-05T10:31:28.173Z,8.90
2022-10-05T10:35:24.116Z,7.90
2022-10-05T10:39:02.007Z,7.50
2022-10-05T10:42:42.855Z,7.80
2022-10-05T10:46:21.810Z,10.60
2022-10-05T10:50:12.145Z,7.70
2022-10-05T10:54:16.003Z,10.50
2022-10-05T10:58:16.038Z,12.90
2022-10-05T11:01:51.611Z,8.70
2022-10-05T11:05:33.180Z,9.80
2022-10-05T11:09:37.309Z,7.60
2022-10-05T11:13:30.514Z,7.60
2022-10-05T11:17:23.025Z,7.90
2022-10-05T11:21:17.730Z,10.20
2022-10-05T11:25:02.744Z,8.00
2022-10-05T11:29:20.450Z,8.00
2022-10-05T11:33:25.352Z,11.70
2022-10-05T11:37:41.504Z,8.70
2022-10-05T11:41:34.560Z,11.00
2022-10-05T11:45:29.152Z,6.00
2022-10-05T11:49:17.262Z,6.40
2022-10-05T11:52:49.450Z,8.40
2022-10-05T11:56:25.515Z,9.60
2022-10-05T11:59:59.525Z,9.90
2022-10-05T12:03:43.720Z,6.50
2022-10-05T12:07:23.131Z,7.80
2022-10-05T12:11:05.692Z,5.40
2022-10-05T12:14:42.777Z,7.30
2022-10-05T12:18:17.191Z,8.30
2022-10-05T12:21:49.556Z,8.30
2022-10-05T12:25:25.860Z,7.60
2022-10-05T12:28:57.622Z,12.70
2022-10-05T12:32:28.413Z,6.80
2022-10-05T12:36:03.358Z,6.00
2022-10-05T12:39:42.630Z,5.30
2022-10-05T12:43:18.901Z,4.90
2022-10-05T12:46:55.183Z,11.00
2022-10-05T12:50:29.320Z,5.80
2022-10-05T12:54:03.208Z,13.00
2022-10-05T12:57:40.538Z,7.20
2022-10-05T13:01:23.469Z,6.60
2022-10-05T13:04:59.048Z,6.30
2022-10-05T13:08:34.122Z,6.70
2022-10-05T13:12:06.324Z,8.50
2022-10-05T13:15:39.011Z,7.60
2022-10-05T13:19:22.932Z,6.60
2022-10-05T13:22:58.745Z,4.20
2022-10-05T13:26:33.701Z,7.60
2022-10-05T13:30:05.243Z,9.30
2022-10-05T13:33:49.315Z,10.00
2022-10-05T13:37:25.782Z,12.60
2022-10-05T13:41:04.631Z,10.80
2022-10-05T13:44:37.938Z,14.90
2022-10-05T13:48:18.439Z,9.60
2022-10-05T13:51:53.989Z,10.10
2022-10-05T13:55:39.499Z,15.30
2022-10-05T13:59:16.546Z,9.90
2022-10-05T14:02:52.164Z,8.50
2022-10-05T14:06:31.534Z,12.10
2022-10-05T14:10:01.609Z,8.80
2022-10-05T14:13:35.558Z,7.10
2022-10-05T14:17:04.369Z,9.90
2022-10-05T14:20:34.540Z,7.40
2022-10-05T14:24:42.496Z,12.40
2022-10-05T14:28:34.588Z,8.00
2022-10-05T14:32:16.352Z,6.30
2022-10-05T14:39:42.517Z,9.10
2022-10-05T14:43:22.628Z,6.00
2022-10-05T14:46:58.997Z,8.00
2022-10-05T14:50:30.999Z,12.00
2022-10-05T14:54:04.460Z,11.90
2022-10-05T14:57:41.502Z,6.80
2022-10-05T15:01:23.607Z,7.80
2022-10-05T15:05:02.501Z,10.90
2022-10-05T15:08:48.379Z,16.10
2022-10-05T15:12:22.923Z,5.70
2022-10-05T15:15:54.910Z,12.30
2022-10-05T15:19:25.805Z,9.70
2022-10-05T15:23:01.180Z,9.40
2022-10-05T15:26:41.799Z,6.00
2022-10-05T15:30:15.665Z,9.30
2022-10-05T15:33:51.165Z,17.70
2022-10-05T15:37:24.984Z,14.50
2022-10-05T15:41:01.517Z,12.20
2022-10-05T15:44:38.097Z,12.00
2022-10-05T15:48:09.389Z,10.30
2022-10-05T15:51:50.393Z,11.50
2022-10-05T15:55:32.487Z,15.60
2022-10-05T15:59:08.800Z,10.40
2022-10-05T16:02:47.787Z,8.90
2022-10-05T16:06:42.587Z,11.60
2022-10-05T16:10:17.545Z,10.00
2022-10-05T16:13:51.728Z,7.20
2022-10-05T16:17:35.034Z,14.50
2022-10-05T16:21:11.423Z,14.70
2022-10-05T16:25:01.943Z,11.40
2022-10-05T16:28:40.834Z,31.00
2022-10-05T16:32:17.871Z,17.80
2022-10-05T16:35:54.427Z,24.10
2022-10-05T16:39:40.543Z,30.20
2022-10-05T16:43:22.077Z,43.90
2022-10-05T16:46:56.808Z,41.30
2022-10-05T16:50:31.675Z,44.90
2022-10-05T16:54:11.886Z,58.60
2022-10-05T17:01:54.142Z,62.00
2022-10-05T17:05:38.813Z,68.70
2022-10-05T17:09:39.981Z,75.30
2022-10-05T17:13:22.605Z,85.30
2022-10-05T17:17:07.161Z,76.50
2022-10-05T17:20:49.477Z,78.50
2022-10-05T17:24:36.079Z,65.00
2022-10-05T17:28:23.781Z,62.70
2022-10-05T17:32:33.723Z,55.90
2022-10-05T17:36:19.187Z,51.30
2022-10-05T17:39:59.862Z,45.40
2022-10-05T17:43:38.762Z,44.50
2022-10-05T17:47:24.318Z,62.60
2022-10-05T17:51:15.462Z,61.90
2022-10-05T17:55:30.721Z,63.00
2022-10-05T17:59:03.703Z,63.90
2022-10-05T18:02:45.833Z,58.80
2022-10-05T18:06:42.660Z,54.70
2022-10-05T18:10:41.039Z,57.30
2022-10-05T18:14:21.234Z,42.10
2022-10-05T18:17:53.324Z,37.80
2022-10-05T18:21:33.687Z,35.70
2022-10-05T18:25:08.148Z,31.00
2022-10-05T18:28:49.032Z,26.90
2022-10-05T18:32:28.953Z,23.80
2022-10-05T18:36:11.644Z,20.80
2022-10-05T18:40:05.759Z,21.20
2022-10-05T18:43:41.294Z,20.00
2022-10-05T18:47:19.483Z,19.80
2022-10-05T18:51:00.041Z,21.30
2022-10-05T18:54:56.067Z,21.90
2022-10-05T18:58:35.686Z,25.20
2022-10-05T19:02:16.441Z,27.40
2022-10-05T19:05:50.693Z,26.20
2022-10-05T19:09:32.676Z,29.70
2022-10-05T19:13:13.603Z,26.00
2022-10-05T19:20:34.955Z,26.50
2022-10-05T19:24:21.485Z,23.10
2022-10-05T19:28:11.711Z,20.60
2022-10-05T19:31:51.616Z,24.30
2022-10-05T19:35:37.053Z,20.60
2022-10-05T19:39:19.386Z,20.60
2022-10-05T19:43:33.305Z,20.00
2022-10-05T19:47:10.218Z,18.00
2022-10-05T19:50:40.612Z,20.90
2022-10-05T19:54:25.119Z,27.40
2022-10-05T19:57:57.453Z,19.50
2022-10-05T20:01:44.735Z,18.00
2022-10-05T20:05:23.279Z,23.20
2022-10-05T20:09:23.690Z,18.20
2022-10-05T20:13:04.300Z,19.60
2022-10-05T20:17:01.261Z,16.90
2022-10-05T20:20:47.023Z,14.90
2022-10-05T20:24:29.869Z,14.20
2022-10-05T20:28:00.078Z,20.10
2022-10-05T20:31:33.748Z,19.60
2022-10-05T20:35:03.846Z,18.20
2022-10-05T20:38:40.651Z,22.00
2022-10-05T20:42:18.169Z,21.90
2022-10-05T20:45:53.044Z,19.40
2022-10-05T20:49:28.850Z,21.60
2022-10-05T20:52:58.266Z,21.00
2022-10-05T20:56:33.602Z,23.20
2022-10-05T21:00:06.039Z,17.50
2022-10-05T21:03:35.394Z,19.90
2022-10-05T21:07:04.611Z,20.60
2022-10-05T21:10:33.509Z,21.90
2022-10-05T21:14:05.549Z,23.70
2022-10-05T21:17:36.624Z,20.30
2022-10-05T21:21:07.875Z,20.60
2022-10-05T21:24:42.604Z,19.10
2022-10-05T21:28:10.462Z,25.00
2022-10-05T21:31:39.252Z,15.50
2022-10-05T21:35:09.703Z,17.10
2022-10-05T21:38:37.311Z,15.90
2022-10-05T21:42:06.848Z,15.40
2022-10-05T21:45:35.486Z,16.40
2022-10-05T21:49:03.774Z,16.00
2022-10-05T21:52:35.769Z,16.90
2022-10-05T21:56:11.737Z,17.90
2022-10-05T21:59:39.118Z,17.30
2022-10-05T22:03:08.147Z,16.30
2022-10-05T22:06:36.791Z,16.50
2022-10-05T22:10:06.111Z,14.80
2022-10-05T22:13:43.698Z,15.10
2022-10-05T22:17:17.885Z,14.00
2022-10-05T22:20:45.204Z,12.30
2022-10-05T22:24:13.432Z,15.30
2022-10-05T22:27:40.430Z,18.50
2022-10-05T22:31:11.069Z,12.80
2022-10-05T22:34:42.586Z,15.30
2022-10-05T22:38:11.671Z,13.20
2022-10-05T22:41:38.828Z,16.50
2022-10-05T22:45:09.061Z,16.10
2022-10-05T22:48:35.976Z,12.90
2022-10-05T22:52:02.661Z,19.50
2022-10-05T22:55:29.811Z,13.80
2022-10-05T22:58:56.969Z,18.20
2022-10-05T23:02:27.411Z,16.30
2022-10-05T23:06:03.848Z,14.90
2022-10-05T23:09:32.626Z,13.40
2022-10-05T23:13:01.300Z,13.00
2022-10-05T23:16:30.737Z,15.30
2022-10-05T23:19:58.118Z,14.90
2022-10-05T23:23:25.769Z,13.10
2022-10-05T23:26:54.008Z,15.10
2022-10-05T23:30:25.319Z,14.30
2022-10-05T23:33:52.607Z,22.00
2022-10-05T23:37:23.761Z,20.10
2022-10-05T23:40:52.860Z,15.30
2022-10-05T23:44:23.184Z,15.00
2022-10-05T23:47:52.398Z,13.90
2022-10-05T23:51:19.519Z,11.20
2022-10-05T23:54:46.267Z,12.60
2022-10-05T23:58:15.633Z,15.60
